Flight Track Log - Related Links

Times and Time Zones

All times are in EDT time to prevent confusion due to time zone crossing. See the N600TR flight status page for this flight to view local times or setup timezone preferences in your user account.

Time Position Orientation Groundspeed Altitude Reporting Facility
EDT Latitude Longitude Course Direction KTS MPH feet Rate Location/Type
Mon 07:37:52 AM 33.4397 -82.0397 244° Southwest 191 220 3,200  Level Atlanta Center
Mon 07:38:52 AM 33.4267 -82.1222 259° West 201 231 5,300 2,250 Climbing Atlanta Center
Mon 07:39:52 AM 33.4111 -82.2097 258° West 241 277 7,700 2,150 Climbing Atlanta Center
Mon 07:40:52 AM 33.3958 -82.3069 259° West 277 319 9,600 1,900 Climbing Atlanta Center
Mon 07:41:52 AM 33.3828 -82.4144 262° West 323 372 11,500 1,650 Climbing Atlanta Center
Mon 07:42:00 AM 33.6170 -82.3327 239° Southwest  Level FlightAware Approximate
Mon 07:42:52 AM 33.3697 -82.5289 262° West 354 407 12,900  Level Atlanta Center
Mon 07:43:00 AM 33.5896 -82.3926 244° Southwest  Level FlightAware Approximate
Mon 07:43:52 AM 33.3711 -82.6508 271° West 362 417 15,300  Level Atlanta Center
Mon 07:44:52 AM 33.3744 -82.7678 272° West 379 436 16,900 1,700 Climbing Atlanta Center
Mon 07:45:52 AM 33.3819 -82.8944 274° West 386 444 18,700 1,450 Climbing Atlanta Center
Mon 07:46:52 AM 33.3914 -83.0261 275° West 400 460 19,800 650 Climbing Atlanta Center
Mon 07:47:52 AM 33.3694 -83.1708 260° West 422 486 20,000 100 Climbing Atlanta Center
Mon 07:48:52 AM 33.3328 -83.3103 253° West 434 499 20,000 -450 Level Atlanta Center
Mon 07:49:52 AM 33.3003 -83.4497 254° West 439 505 19,100 -2,000 Descending Atlanta Center
Mon 07:50:52 AM 33.2694 -83.5967 256° West 432 497 16,000 -3,382 Descending Atlanta Center
Mon 07:51:42 AM 33.2500 -83.7000 257° West 403 464 12,900 -2,182 Descending Atlanta TRACON
Mon 07:52:42 AM 33.2333 -83.8167 260° West 355 409 12,000 -714 Descending Atlanta TRACON
Mon 07:53:48 AM 33.2833 -83.9000 306° West 292 336 11,400 -1,143 Descending Atlanta TRACON
Mon 07:54:48 AM 33.3667 -83.9333 342° North 289 333 9,600 -1,600 Descending Atlanta TRACON
Mon 07:55:48 AM 33.4333 -83.9667 337° Northwest 274 315 8,200 -842 Descending Atlanta TRACON
Mon 07:56:42 AM 33.5000 -83.9667 360° North 272 313 8,000 -789 Descending Atlanta TRACON
Mon 07:57:42 AM 33.5667 -84.0000 337° Northwest 261 300 6,700 -1,000 Descending Atlanta TRACON
Mon 07:58:42 AM 33.6167 -84.0667 312° West 261 300 6,000 -700 Descending Atlanta TRACON
Mon 07:59:42 AM 33.6333 -84.1333 287° West 215 247 5,300 -800 Descending Atlanta TRACON
Mon 08:00:42 AM 33.6333 -84.2000 270° West 207 238 4,400 -900 Descending Atlanta TRACON
Mon 08:01:42 AM 33.6333 -84.2667 270° West 188 216 3,500 -900 Descending Atlanta TRACON
Mon 08:02:42 AM 33.6333 -84.3167 270° West 179 206 2,600 -900 Descending Atlanta TRACON
Mon 08:03:42 AM 33.6333 -84.3667 270° West 142 163 1,700 -900 Descending Atlanta TRACON

Login

Don't have an account? Register now (free) for customized features, flight alerts, and more!